createdAt,value
2018-07-24T00:00:03.686Z,15.625
2018-07-24T00:01:04.273Z,15.625
2018-07-24T00:02:04.237Z,15.625
2018-07-24T00:03:03.566Z,15.562
2018-07-24T00:04:03.885Z,15.562
2018-07-24T00:05:05.027Z,15.562
2018-07-24T00:06:04.347Z,15.562
2018-07-24T00:07:03.816Z,15.562
2018-07-24T00:08:03.988Z,15.562
2018-07-24T00:09:03.679Z,15.5
2018-07-24T00:10:03.445Z,15.5
2018-07-24T00:11:04.238Z,15.5
2018-07-24T00:12:03.525Z,15.5
2018-07-24T00:13:04.237Z,15.437
2018-07-24T00:14:03.674Z,15.437
2018-07-24T00:15:04.469Z,15.437
2018-07-24T00:16:03.958Z,15.437
2018-07-24T00:17:03.609Z,15.375
2018-07-24T00:18:04.010Z,15.375
2018-07-24T00:19:05.286Z,15.375
2018-07-24T00:20:03.419Z,15.375
2018-07-24T00:21:03.854Z,15.375
2018-07-24T00:22:03.564Z,15.312
2018-07-24T00:23:04.193Z,15.375
2018-07-24T00:24:03.489Z,15.312
2018-07-24T00:25:03.701Z,15.312
2018-07-24T00:26:04.254Z,15.25
2018-07-24T00:27:04.047Z,15.312
2018-07-24T00:28:03.642Z,15.312
2018-07-24T00:29:04.903Z,15.312
2018-07-24T00:30:04.129Z,15.312
2018-07-24T00:31:03.578Z,15.312
2018-07-24T00:32:04.174Z,15.25
2018-07-24T00:33:03.991Z,15.25
2018-07-24T00:34:03.670Z,15.187
2018-07-24T00:35:04.130Z,15.125
2018-07-24T00:36:03.510Z,15.125
2018-07-24T00:37:03.823Z,15.125
2018-07-24T00:38:03.501Z,15.062
2018-07-24T00:39:05.710Z,15.062
2018-07-24T00:40:04.146Z,15.062
2018-07-24T00:41:03.660Z,15
2018-07-24T00:42:03.654Z,15
2018-07-24T00:43:04.281Z,15
2018-07-24T00:44:03.867Z,15
2018-07-24T00:45:03.460Z,15
2018-07-24T00:46:03.915Z,15
2018-07-24T00:47:04.059Z,15
2018-07-24T00:48:03.664Z,15
2018-07-24T00:49:05.167Z,15
2018-07-24T00:50:04.144Z,15
2018-07-24T00:51:03.599Z,15
2018-07-24T00:52:04.142Z,14.937
2018-07-24T00:53:03.898Z,14.937
2018-07-24T00:54:03.396Z,14.937
2018-07-24T00:55:03.930Z,14.937
2018-07-24T00:56:03.892Z,14.937
2018-07-24T00:57:03.476Z,14.937
2018-07-24T00:58:04.071Z,14.937
2018-07-24T00:59:04.979Z,15
2018-07-24T01:00:03.446Z,15
2018-07-24T01:01:04.080Z,15.125
2018-07-24T01:02:03.700Z,15.125
2018-07-24T01:03:05.157Z,15.187
2018-07-24T01:04:03.521Z,15.187
2018-07-24T01:05:04.275Z,15.187
2018-07-24T01:06:03.537Z,15.187
2018-07-24T01:07:04.160Z,15.187
2018-07-24T01:08:03.634Z,15.125
2018-07-24T01:09:03.945Z,15.125
2018-07-24T01:10:04.267Z,15.125
2018-07-24T01:11:03.481Z,15.125
2018-07-24T01:12:03.798Z,15.125
2018-07-24T01:13:03.882Z,15.125
2018-07-24T01:14:03.314Z,15.125
2018-07-24T01:15:04.150Z,15.125
2018-07-24T01:16:03.723Z,15.125
2018-07-24T01:17:03.450Z,15.125
2018-07-24T01:18:03.515Z,15.187
2018-07-24T01:19:04.069Z,15.25
2018-07-24T01:20:03.664Z,15.25
2018-07-24T01:21:04.209Z,15.25
2018-07-24T01:22:03.770Z,15.25
2018-07-24T01:23:03.374Z,15.25
2018-07-24T01:24:04.834Z,15.25
2018-07-24T01:25:03.776Z,15.187
2018-07-24T01:26:03.334Z,15.187
2018-07-24T01:27:04.211Z,15.125
2018-07-24T01:28:03.560Z,15.125
2018-07-24T01:29:03.900Z,15.062
2018-07-24T01:30:04.131Z,15.125
2018-07-24T01:31:03.690Z,15.125
2018-07-24T01:32:04.409Z,15.125
2018-07-24T01:33:03.821Z,15.125
2018-07-24T01:34:03.833Z,15.125
2018-07-24T01:35:04.028Z,15.125
2018-07-24T01:36:03.599Z,15.187
2018-07-24T01:37:03.491Z,15.187
2018-07-24T01:38:04.023Z,15.187
2018-07-24T01:39:03.988Z,15.187
2018-07-24T01:40:03.527Z,15.125
2018-07-24T01:41:04.271Z,15.062
2018-07-24T01:42:03.692Z,15
2018-07-24T01:43:04.221Z,14.937
2018-07-24T01:44:03.716Z,14.875
2018-07-24T01:45:04.284Z,14.812
2018-07-24T01:46:03.688Z,14.75
2018-07-24T01:47:03.324Z,14.687
2018-07-24T01:48:04.019Z,14.687
2018-07-24T01:49:04.502Z,14.625
2018-07-24T01:50:03.700Z,14.562
2018-07-24T01:51:03.364Z,14.5
2018-07-24T01:52:04.201Z,14.5
2018-07-24T01:53:03.918Z,14.437
2018-07-24T01:54:03.597Z,14.437
2018-07-24T01:55:03.451Z,14.375
2018-07-24T01:56:03.886Z,14.375
2018-07-24T01:57:04.294Z,14.312
2018-07-24T01:58:03.792Z,14.375
2018-07-24T01:59:04.014Z,14.312
2018-07-24T02:00:04.030Z,14.312
2018-07-24T02:01:03.860Z,14.312
2018-07-24T02:02:03.529Z,14.312
2018-07-24T02:03:05.239Z,14.312
2018-07-24T02:04:03.856Z,14.312
2018-07-24T02:05:03.425Z,14.25
2018-07-24T02:06:04.169Z,14.25
2018-07-24T02:07:03.644Z,14.187
2018-07-24T02:08:04.245Z,14.187
2018-07-24T02:09:04.566Z,14.187
2018-07-24T02:10:03.548Z,14.187
2018-07-24T02:11:04.213Z,14.125
2018-07-24T02:12:03.511Z,14.125
2018-07-24T02:13:04.064Z,14.125
2018-07-24T02:14:03.512Z,14.062
2018-07-24T02:15:04.144Z,14.062
2018-07-24T02:16:03.485Z,14.062
2018-07-24T02:17:04.228Z,14.062
2018-07-24T02:18:04.022Z,14.062
2018-07-24T02:19:03.509Z,14.062
2018-07-24T02:20:05.076Z,14.062
2018-07-24T02:21:03.581Z,14.062
2018-07-24T02:22:04.325Z,14
2018-07-24T02:23:03.769Z,14
2018-07-24T02:24:04.326Z,14
2018-07-24T02:25:03.770Z,14
2018-07-24T02:26:04.006Z,13.937
2018-07-24T02:27:03.523Z,14
2018-07-24T02:28:04.168Z,14
2018-07-24T02:29:03.817Z,14
2018-07-24T02:30:03.661Z,13.937
2018-07-24T02:31:03.381Z,13.937
2018-07-24T02:32:03.928Z,13.937
2018-07-24T02:33:04.102Z,14
2018-07-24T02:34:04.462Z,14
2018-07-24T02:35:04.000Z,14.062
2018-07-24T02:36:03.446Z,14.125
2018-07-24T02:37:04.151Z,14.125
2018-07-24T02:38:03.683Z,14.187
2018-07-24T02:39:03.680Z,14.187
2018-07-24T02:40:04.616Z,14.187
2018-07-24T02:41:03.958Z,14.125
2018-07-24T02:42:03.525Z,14.125
2018-07-24T02:43:04.052Z,14.187
2018-07-24T02:44:03.537Z,14.187
2018-07-24T02:45:04.099Z,14.187
2018-07-24T02:46:03.865Z,14.187
2018-07-24T02:47:03.498Z,14.125
2018-07-24T02:48:03.942Z,14.125
2018-07-24T02:49:05.368Z,14.062
2018-07-24T02:50:03.542Z,14.062
2018-07-24T02:51:03.910Z,14.062
2018-07-24T02:52:03.568Z,14.062
2018-07-24T02:53:04.239Z,14.062
2018-07-24T02:54:03.886Z,14
2018-07-24T02:55:03.591Z,14.062
2018-07-24T02:56:04.193Z,14.062
2018-07-24T02:57:03.845Z,14.125
2018-07-24T02:58:04.048Z,14.187
2018-07-24T02:59:03.809Z,14.187
2018-07-24T03:00:03.469Z,14.25
2018-07-24T03:01:04.099Z,14.187
2018-07-24T03:02:04.011Z,14.25
2018-07-24T03:03:03.700Z,14.25
2018-07-24T03:04:04.276Z,14.25
2018-07-24T03:05:03.915Z,14.25
2018-07-24T03:06:03.457Z,14.187
2018-07-24T03:07:04.078Z,14.125
2018-07-24T03:08:03.670Z,14.125
2018-07-24T03:09:03.665Z,14.062
2018-07-24T03:10:03.643Z,14
2018-07-24T03:11:04.177Z,14
2018-07-24T03:12:03.717Z,14
2018-07-24T03:13:03.464Z,13.937
2018-07-24T03:14:04.091Z,13.937
2018-07-24T03:15:03.958Z,14
2018-07-24T03:16:03.741Z,14.062
2018-07-24T03:17:03.541Z,14.125
2018-07-24T03:18:04.184Z,14.187
2018-07-24T03:19:03.565Z,14.25
2018-07-24T03:20:04.217Z,14.312
2018-07-24T03:21:03.613Z,14.375
2018-07-24T03:22:04.106Z,14.375
2018-07-24T03:23:03.674Z,14.375
2018-07-24T03:24:04.021Z,14.375
2018-07-24T03:25:03.586Z,14.375
2018-07-24T03:26:03.911Z,14.375
2018-07-24T03:27:04.181Z,14.437
2018-07-24T03:28:03.840Z,14.375
2018-07-24T03:29:03.453Z,14.375
2018-07-24T03:30:04.091Z,14.375
2018-07-24T03:31:03.742Z,14.5
2018-07-24T03:32:04.239Z,14.812
2018-07-24T03:33:03.897Z,15.25
2018-07-24T03:34:03.684Z,15.687
2018-07-24T03:35:04.306Z,16.062
2018-07-24T03:36:03.725Z,16.5
2018-07-24T03:37:03.444Z,16.875
2018-07-24T03:38:04.047Z,17.25
2018-07-24T03:39:04.061Z,17.562
2018-07-24T03:40:03.792Z,17.937
2018-07-24T03:41:03.633Z,18.25
2018-07-24T03:42:04.253Z,18.562
2018-07-24T03:43:03.705Z,18.937
2018-07-24T03:44:04.381Z,19.187
2018-07-24T03:45:04.114Z,19.5
2018-07-24T03:46:04.468Z,19.875
2018-07-24T03:47:04.066Z,20.125
2018-07-24T03:48:03.688Z,20.375
2018-07-24T03:49:03.267Z,20.687
2018-07-24T03:50:04.411Z,21
2018-07-24T03:51:03.804Z,21.25
2018-07-24T03:52:03.502Z,21.5
2018-07-24T03:53:04.171Z,21.75
2018-07-24T03:54:03.614Z,22
2018-07-24T03:55:04.282Z,22.187
2018-07-24T03:56:03.803Z,22.437
2018-07-24T03:57:03.400Z,22.625
2018-07-24T03:58:03.528Z,22.812
2018-07-24T03:59:04.287Z,23.125
2018-07-24T04:00:03.953Z,23.187
2018-07-24T04:01:03.237Z,23.375
2018-07-24T04:02:03.832Z,23.5
2018-07-24T04:03:04.280Z,23.625
2018-07-24T04:04:04.055Z,23.812
2018-07-24T04:05:03.657Z,24
2018-07-24T04:06:03.612Z,24.25
2018-07-24T04:07:03.613Z,24.437
2018-07-24T04:08:18.911Z,24.562
2018-07-24T04:09:04.053Z,24.75
2018-07-24T04:10:03.426Z,24.875
2018-07-24T04:11:04.002Z,25
2018-07-24T04:12:03.938Z,25.25
2018-07-24T04:13:03.612Z,25.5
2018-07-24T04:14:03.361Z,25.687
2018-07-24T04:15:04.123Z,25.812
2018-07-24T04:16:03.957Z,26.062
2018-07-24T04:17:03.830Z,26.25
2018-07-24T04:18:03.654Z,26.375
2018-07-24T04:19:04.356Z,26.375
2018-07-24T04:20:03.698Z,26.5
2018-07-24T04:21:03.285Z,26.625
2018-07-24T04:22:04.125Z,26.875
2018-07-24T04:23:04.144Z,27
2018-07-24T04:24:03.766Z,27.062
2018-07-24T04:25:04.253Z,27.125
2018-07-24T04:26:04.324Z,27.125
2018-07-24T04:27:04.161Z,27.062
2018-07-24T04:28:04.005Z,27.125
2018-07-24T04:29:04.540Z,27.25
2018-07-24T04:30:03.853Z,27.25
2018-07-24T04:31:03.540Z,27.312
2018-07-24T04:32:03.985Z,27.5
2018-07-24T04:33:03.771Z,27.5
2018-07-24T04:34:04.127Z,27.562
2018-07-24T04:35:03.802Z,27.687
2018-07-24T04:36:05.471Z,27.937
2018-07-24T04:37:04.117Z,27.937
2018-07-24T04:38:04.179Z,28.062
2018-07-24T04:39:03.980Z,28.187
2018-07-24T04:40:03.755Z,28.312
2018-07-24T04:41:03.602Z,28.437
2018-07-24T04:42:03.613Z,28.375
2018-07-24T04:43:03.530Z,28.5
2018-07-24T04:44:04.314Z,28.437
2018-07-24T04:45:03.996Z,28.5
2018-07-24T04:46:03.948Z,28.625
2018-07-24T04:47:03.585Z,28.75
2018-07-24T04:48:04.388Z,28.75
2018-07-24T04:49:04.309Z,28.812
2018-07-24T04:50:03.949Z,28.875
2018-07-24T04:51:03.635Z,29
2018-07-24T04:52:04.083Z,29.25
2018-07-24T04:53:03.886Z,29.25
2018-07-24T04:54:04.311Z,29.187
2018-07-24T04:55:04.018Z,29.312
2018-07-24T04:56:03.864Z,29.25
2018-07-24T04:57:03.631Z,29.187
2018-07-24T04:58:03.333Z,29.312
2018-07-24T04:59:04.101Z,29.5
2018-07-24T05:00:03.867Z,29.562
2018-07-24T05:01:03.459Z,29.437
2018-07-24T05:02:04.520Z,29.437
2018-07-24T05:03:03.992Z,29.562
2018-07-24T05:04:04.605Z,29.375
2018-07-24T05:05:04.006Z,29.687
2018-07-24T05:06:03.758Z,29.812
2018-07-24T05:07:03.569Z,30
2018-07-24T05:08:04.392Z,29.812
2018-07-24T05:09:04.282Z,29.625
2018-07-24T05:10:04.415Z,29.375
2018-07-24T05:11:04.215Z,29.5
2018-07-24T05:12:04.924Z,29.687
2018-07-24T05:13:03.665Z,29.437
2018-07-24T05:14:04.333Z,29.5
2018-07-24T05:15:03.909Z,29.625
2018-07-24T05:16:03.815Z,29.812
2018-07-24T05:17:03.836Z,30.125
2018-07-24T05:18:04.235Z,30.437
2018-07-24T05:19:04.084Z,30.687
2018-07-24T05:20:03.658Z,30.5
2018-07-24T05:21:03.517Z,30.562
2018-07-24T05:22:03.952Z,30.562
2018-07-24T05:23:04.609Z,30.5
2018-07-24T05:24:04.015Z,30.5
2018-07-24T05:25:04.415Z,30.437
2018-07-24T05:26:03.978Z,30.75
2018-07-24T05:27:03.667Z,31
2018-07-24T05:28:04.195Z,30.812
2018-07-24T05:29:03.897Z,30.812
2018-07-24T05:30:03.621Z,31.062
2018-07-24T05:31:03.704Z,31.062
2018-07-24T05:32:04.332Z,31.437
2018-07-24T05:33:03.950Z,31.375
2018-07-24T05:34:03.949Z,31.5
2018-07-24T05:35:03.691Z,31.75
2018-07-24T05:36:03.538Z,31.625
2018-07-24T05:37:04.304Z,31.5
2018-07-24T05:38:03.657Z,31.75
2018-07-24T05:39:03.648Z,31.937
2018-07-24T05:40:03.514Z,31.812
2018-07-24T05:41:04.340Z,31.75
2018-07-24T05:42:03.591Z,31.937
2018-07-24T05:43:03.508Z,31.937
2018-07-24T05:44:04.610Z,31.937
2018-07-24T05:45:04.447Z,32.062
2018-07-24T05:46:04.067Z,32.187
2018-07-24T05:47:03.839Z,32.437
2018-07-24T05:48:04.191Z,32.437
2018-07-24T05:49:04.028Z,32.375
2018-07-24T05:50:03.481Z,32.25
2018-07-24T05:51:04.298Z,32.25
2018-07-24T05:52:04.404Z,32.375
2018-07-24T05:53:03.441Z,32.562
2018-07-24T05:54:04.193Z,32.625
2018-07-24T05:55:04.804Z,32.625
2018-07-24T05:56:04.185Z,32.437
2018-07-24T05:57:03.877Z,32.562
2018-07-24T05:58:03.640Z,32.75
2018-07-24T05:59:04.212Z,32.437
2018-07-24T06:00:03.763Z,32.5
2018-07-24T06:01:03.802Z,32.687
2018-07-24T06:02:04.113Z,33
2018-07-24T06:03:03.781Z,33.062
2018-07-24T06:04:03.425Z,33.25
2018-07-24T06:05:03.454Z,33.312
2018-07-24T06:06:04.289Z,33
2018-07-24T06:07:03.326Z,33.062
2018-07-24T06:08:04.244Z,33.187
2018-07-24T06:09:03.899Z,33.25
2018-07-24T06:10:04.026Z,33.437
2018-07-24T06:11:03.739Z,33.5
2018-07-24T06:12:04.181Z,33.312
2018-07-24T06:13:03.963Z,33.125
2018-07-24T06:14:03.675Z,33.062
2018-07-24T06:15:03.511Z,33.375
2018-07-24T06:16:04.387Z,33.375
2018-07-24T06:17:04.373Z,33.25
2018-07-24T06:18:04.122Z,33
2018-07-24T06:19:03.991Z,33.187
2018-07-24T06:20:03.847Z,33.375
2018-07-24T06:21:04.220Z,33.437
2018-07-24T06:22:04.251Z,33.375
2018-07-24T06:23:03.662Z,33.562
2018-07-24T06:24:03.605Z,33.437
2018-07-24T06:25:04.377Z,33.25
2018-07-24T06:26:03.855Z,33.312
2018-07-24T06:27:03.874Z,33.625
2018-07-24T06:28:03.758Z,33.562
2018-07-24T06:29:04.664Z,33.375
2018-07-24T06:30:03.712Z,33.187
2018-07-24T06:31:04.225Z,32.937
2018-07-24T06:32:04.049Z,32.75
2018-07-24T06:33:04.225Z,32.625
2018-07-24T06:34:04.029Z,33.125
2018-07-24T06:35:03.548Z,33.25
2018-07-24T06:36:04.288Z,33.375
2018-07-24T06:37:04.089Z,33.25
2018-07-24T06:38:03.527Z,33.5
2018-07-24T06:39:04.686Z,33.437
2018-07-24T06:40:04.328Z,33.312
2018-07-24T06:41:03.849Z,33.375
2018-07-24T06:42:03.584Z,33.5
2018-07-24T06:43:04.139Z,33.812
2018-07-24T06:44:03.876Z,33.75
2018-07-24T06:45:04.192Z,33.75
2018-07-24T06:46:03.762Z,33.625
2018-07-24T06:47:04.624Z,33.125
2018-07-24T06:48:04.023Z,32.687
2018-07-24T06:49:03.907Z,32.312
2018-07-24T06:50:03.657Z,32.25
2018-07-24T06:51:03.385Z,32.375
2018-07-24T06:52:04.229Z,32.375
2018-07-24T06:53:03.877Z,32.562
2018-07-24T06:54:04.164Z,32.687
2018-07-24T06:55:03.784Z,32.625
2018-07-24T06:56:03.661Z,32.625
2018-07-24T06:57:04.265Z,32.875
2018-07-24T06:58:04.116Z,33.125
2018-07-24T06:59:03.857Z,32.937
2018-07-24T07:00:03.489Z,33.125
2018-07-24T07:01:04.095Z,33
2018-07-24T07:02:03.922Z,32.875
2018-07-24T07:03:03.877Z,32.5
2018-07-24T07:04:03.494Z,32.437
2018-07-24T07:05:03.578Z,32.25
2018-07-24T07:06:04.435Z,32.062
2018-07-24T07:07:04.035Z,32.187
2018-07-24T07:08:03.658Z,32.062
2018-07-24T07:09:04.797Z,32.312
2018-07-24T07:10:05.368Z,32.5
2018-07-24T07:11:04.117Z,32.562
2018-07-24T07:12:03.679Z,32.25
2018-07-24T07:13:03.619Z,32.312
2018-07-24T07:14:04.459Z,32.125
2018-07-24T07:15:04.257Z,32.312
2018-07-24T07:16:03.985Z,32.5
2018-07-24T07:17:03.837Z,32.812
2018-07-24T07:18:03.707Z,32.75
2018-07-24T07:19:04.359Z,32.812
2018-07-24T07:20:03.936Z,32.812
2018-07-24T07:21:03.768Z,32.812
2018-07-24T07:22:03.595Z,32.687
2018-07-24T07:23:04.187Z,33
2018-07-24T07:24:03.975Z,33.187
2018-07-24T07:25:03.761Z,33
2018-07-24T07:26:03.711Z,33.125
2018-07-24T07:27:04.268Z,33.5
2018-07-24T07:28:04.153Z,34.062
2018-07-24T07:29:05.209Z,33.937
2018-07-24T07:30:03.980Z,33.937
2018-07-24T07:31:03.945Z,33.75
2018-07-24T07:32:04.007Z,33.812
2018-07-24T07:33:03.725Z,33.625
2018-07-24T07:34:04.387Z,33.687
2018-07-24T07:35:04.000Z,33.562
2018-07-24T07:36:03.553Z,33.687
2018-07-24T07:37:04.164Z,33.875
2018-07-24T07:38:03.952Z,34.062
2018-07-24T07:39:05.914Z,34.062
2018-07-24T07:40:03.493Z,33.812
2018-07-24T07:41:03.446Z,33.625
2018-07-24T07:42:04.068Z,33.812
2018-07-24T07:43:03.628Z,34.125
2018-07-24T07:44:04.515Z,34.437
2018-07-24T07:45:04.249Z,34.625
2018-07-24T07:46:04.189Z,34.5
2018-07-24T07:47:03.615Z,34.125
2018-07-24T07:48:04.383Z,33.875
2018-07-24T07:49:03.812Z,33.875
2018-07-24T07:50:04.117Z,34
2018-07-24T07:51:03.899Z,33.937
2018-07-24T07:52:03.656Z,33.625
2018-07-24T07:53:04.406Z,33.625
2018-07-24T07:54:05.004Z,33.687
2018-07-24T07:55:04.324Z,33.75
2018-07-24T07:56:03.962Z,34.125
2018-07-24T07:57:03.523Z,34.375
2018-07-24T07:58:04.357Z,34.625
2018-07-24T07:59:03.463Z,34.625
2018-07-24T08:00:04.024Z,34.75
2018-07-24T08:01:03.541Z,34.937
2018-07-24T08:02:04.185Z,35.062
2018-07-24T08:03:03.874Z,35.312
2018-07-24T08:04:04.434Z,35.5
2018-07-24T08:05:03.837Z,35.437
2018-07-24T08:06:03.511Z,35.312
2018-07-24T08:07:03.443Z,34.687
2018-07-24T08:08:04.098Z,34.187
2018-07-24T08:09:03.976Z,34.187
2018-07-24T08:10:03.762Z,34.125
2018-07-24T08:11:04.344Z,34.187
2018-07-24T08:12:03.703Z,34.125
2018-07-24T08:13:04.203Z,34.25
2018-07-24T08:14:04.168Z,34.437
2018-07-24T08:15:03.784Z,34.75
2018-07-24T08:16:03.509Z,34.625
2018-07-24T08:17:04.517Z,34.5
2018-07-24T08:18:04.165Z,34.437
2018-07-24T08:19:03.933Z,34.312
2018-07-24T08:20:03.652Z,34.562
2018-07-24T08:21:04.330Z,34.437
2018-07-24T08:22:03.608Z,34.187
2018-07-24T08:23:04.304Z,33.937
2018-07-24T08:24:04.948Z,33.937
2018-07-24T08:25:05.159Z,34.25
2018-07-24T08:26:03.805Z,34.625
2018-07-24T08:27:03.399Z,34.5
2018-07-24T08:28:04.032Z,34.5
2018-07-24T08:29:05.401Z,34.5
2018-07-24T08:30:04.097Z,34.437
2018-07-24T08:31:03.621Z,34.312
2018-07-24T08:32:03.490Z,34.25
2018-07-24T08:33:04.052Z,34.187
2018-07-24T08:34:04.505Z,34.125
2018-07-24T08:35:03.669Z,34.25
2018-07-24T08:36:04.236Z,34.25
2018-07-24T08:37:04.786Z,34
2018-07-24T08:38:03.611Z,33.75
2018-07-24T08:39:04.503Z,33.625
2018-07-24T08:40:03.780Z,33.75
2018-07-24T08:41:03.468Z,34
2018-07-24T08:42:03.952Z,34.25
2018-07-24T08:43:03.509Z,34.125
2018-07-24T08:44:04.233Z,34.125
2018-07-24T08:45:03.812Z,33.75
2018-07-24T08:46:03.602Z,33.437
2018-07-24T08:47:04.187Z,32.75
2018-07-24T08:48:03.817Z,32.312
2018-07-24T08:49:03.453Z,32.312
2018-07-24T08:50:03.730Z,32.375
2018-07-24T08:51:04.157Z,32.687
2018-07-24T08:52:03.594Z,32.5
2018-07-24T08:53:03.595Z,32.312
2018-07-24T08:54:05.179Z,32.062
2018-07-24T08:55:04.193Z,32.25
2018-07-24T08:56:03.923Z,32.375
2018-07-24T08:57:03.610Z,32.375
2018-07-24T08:58:04.264Z,32.562
2018-07-24T08:59:03.903Z,32.437
2018-07-24T09:00:03.729Z,32.312
2018-07-24T09:01:04.354Z,32
2018-07-24T09:02:03.844Z,32
2018-07-24T09:03:03.386Z,31.625
2018-07-24T09:05:04.196Z,31.437
2018-07-24T09:06:03.693Z,31.437
2018-07-24T09:07:04.395Z,31.687
2018-07-24T09:08:03.835Z,31.75
2018-07-24T09:09:03.738Z,31.562
2018-07-24T09:10:03.978Z,31.375
2018-07-24T09:11:03.710Z,31.562
2018-07-24T09:12:04.328Z,31.75
2018-07-24T09:13:03.956Z,31.875
2018-07-24T09:14:03.463Z,31.687
2018-07-24T09:15:04.151Z,31.875
2018-07-24T09:16:03.861Z,31.937
2018-07-24T09:17:03.641Z,32.062
2018-07-24T09:18:04.262Z,32.125
2018-07-24T09:19:04.003Z,32.375
2018-07-24T09:20:05.034Z,32.375
2018-07-24T09:21:03.531Z,32.312
2018-07-24T09:22:03.980Z,32.187
2018-07-24T09:23:03.544Z,32
2018-07-24T09:24:04.520Z,32
2018-07-24T09:25:03.822Z,32
2018-07-24T09:26:03.539Z,31.937
2018-07-24T09:27:04.102Z,32
2018-07-24T09:28:04.166Z,31.812
2018-07-24T09:29:03.770Z,31.375
2018-07-24T09:30:03.522Z,31.25
2018-07-24T09:31:04.257Z,31.125
2018-07-24T09:32:03.793Z,31.312
2018-07-24T09:33:03.405Z,31.375
2018-07-24T09:34:03.912Z,31.437
2018-07-24T09:35:03.581Z,31.625
2018-07-24T09:36:05.360Z,31.937
2018-07-24T09:37:04.137Z,32.125
2018-07-24T09:38:03.605Z,32.187
2018-07-24T09:39:04.509Z,32.375
2018-07-24T09:40:03.864Z,32.437
2018-07-24T09:41:03.458Z,32.562
2018-07-24T09:42:04.149Z,32.5
2018-07-24T09:43:03.512Z,32.437
2018-07-24T09:44:04.373Z,32.5
2018-07-24T09:45:03.980Z,32.437
2018-07-24T09:46:03.466Z,32.25
2018-07-24T09:47:04.098Z,32.125
2018-07-24T09:48:03.604Z,32
2018-07-24T09:49:04.748Z,31.812
2018-07-24T09:50:04.326Z,31.625
2018-07-24T09:51:03.572Z,31.5
2018-07-24T09:52:04.176Z,31.437
2018-07-24T09:53:03.963Z,31.5
2018-07-24T09:54:03.616Z,31.437
2018-07-24T09:55:04.159Z,31.312
2018-07-24T09:56:03.794Z,31.25
2018-07-24T09:57:04.297Z,31.312
2018-07-24T09:58:03.805Z,31.312
2018-07-24T09:59:04.337Z,31.25
2018-07-24T10:00:03.758Z,31.062
2018-07-24T10:01:04.260Z,31.187
2018-07-24T10:02:04.173Z,31.25
2018-07-24T10:03:03.752Z,31.187
2018-07-24T10:04:03.493Z,31
2018-07-24T10:05:04.119Z,30.812
2018-07-24T10:06:03.601Z,30.687
2018-07-24T10:07:03.639Z,30.687
2018-07-24T10:08:04.042Z,30.75
2018-07-24T10:09:04.454Z,30.812
2018-07-24T10:10:04.047Z,30.75
2018-07-24T10:11:03.977Z,30.812
2018-07-24T10:12:03.495Z,30.937
2018-07-24T10:13:04.330Z,31
2018-07-24T10:14:03.966Z,31
2018-07-24T10:15:03.773Z,31
2018-07-24T10:16:03.565Z,31
2018-07-24T10:17:04.248Z,31.125
2018-07-24T10:18:03.914Z,31.312
2018-07-24T10:19:03.690Z,31.437
2018-07-24T10:20:04.087Z,31.562
2018-07-24T10:21:03.590Z,31.687
2018-07-24T10:22:04.260Z,31.812
2018-07-24T10:23:03.363Z,31.875
2018-07-24T10:24:05.305Z,31.687
2018-07-24T10:25:03.918Z,31.25
2018-07-24T10:26:03.508Z,31.125
2018-07-24T10:27:05.323Z,30.937
2018-07-24T10:28:03.630Z,30.812
2018-07-24T10:29:04.232Z,30.75
2018-07-24T10:30:03.586Z,30.75
2018-07-24T10:31:04.231Z,30.687
2018-07-24T10:32:03.462Z,30.562
2018-07-24T10:33:03.783Z,30.25
2018-07-24T10:34:04.580Z,30
2018-07-24T10:35:04.099Z,30
2018-07-24T10:36:03.423Z,30.062
2018-07-24T10:37:03.735Z,30.312
2018-07-24T10:38:03.518Z,30.312
2018-07-24T10:39:04.671Z,30.062
2018-07-24T10:40:04.149Z,30.125
2018-07-24T10:41:03.853Z,30.25
2018-07-24T10:42:03.615Z,30.187
2018-07-24T10:43:04.498Z,30.25
2018-07-24T10:44:04.527Z,30.25
2018-07-24T10:45:04.458Z,30.25
2018-07-24T10:46:03.774Z,30.25
2018-07-24T10:47:03.481Z,30.25
2018-07-24T10:48:04.233Z,30.25
2018-07-24T10:49:03.461Z,30.312
2018-07-24T10:50:03.749Z,30.437
2018-07-24T10:51:03.379Z,30.5
2018-07-24T10:52:03.854Z,30.687
2018-07-24T10:53:03.640Z,30.687
2018-07-24T10:54:04.120Z,30.625
2018-07-24T10:55:03.840Z,30.562
2018-07-24T10:56:03.768Z,30.5
2018-07-24T10:57:03.897Z,30.375
2018-07-24T10:58:03.457Z,30.312
2018-07-24T10:59:03.652Z,30.437
2018-07-24T11:00:04.339Z,30.375
2018-07-24T11:01:04.096Z,30.375
2018-07-24T11:02:03.845Z,30.375
2018-07-24T11:03:03.854Z,30.125
2018-07-24T11:04:03.534Z,29.937
2018-07-24T11:05:03.713Z,29.812
2018-07-24T11:06:03.307Z,29.75
2018-07-24T11:07:04.132Z,29.812
2018-07-24T11:08:03.579Z,29.875
2018-07-24T11:09:05.241Z,29.937
2018-07-24T11:10:03.759Z,30.062
2018-07-24T11:11:03.573Z,30.187
2018-07-24T11:12:04.125Z,30.25
2018-07-24T11:13:04.324Z,30.187
2018-07-24T11:14:04.782Z,30.25
2018-07-24T11:15:03.927Z,30.312
2018-07-24T11:16:03.591Z,30.375
2018-07-24T11:17:04.414Z,30.437
2018-07-24T11:18:04.020Z,30.312
2018-07-24T11:19:04.314Z,30.187
2018-07-24T11:20:03.651Z,30.125
2018-07-24T11:21:04.373Z,30.062
2018-07-24T11:22:03.676Z,30
2018-07-24T11:23:03.749Z,30.062
2018-07-24T11:24:03.489Z,30.125
2018-07-24T11:25:03.981Z,30.25
2018-07-24T11:26:03.704Z,30.375
2018-07-24T11:27:03.486Z,30.5
2018-07-24T11:28:04.028Z,30.5
2018-07-24T11:29:04.929Z,30.5
2018-07-24T11:30:04.421Z,30.5
2018-07-24T11:31:03.826Z,30.5
2018-07-24T11:32:03.372Z,30.625
2018-07-24T11:33:04.310Z,30.687
2018-07-24T11:34:03.496Z,30.75
2018-07-24T11:35:03.868Z,30.625
2018-07-24T11:36:03.638Z,30.687
2018-07-24T11:37:03.454Z,30.687
2018-07-24T11:38:04.254Z,30.625
2018-07-24T11:39:03.919Z,30.562
2018-07-24T11:40:04.014Z,30.312
2018-07-24T11:41:03.842Z,30.312
2018-07-24T11:42:03.482Z,30.125
2018-07-24T11:43:04.236Z,30.062
2018-07-24T11:44:03.965Z,30
2018-07-24T11:45:03.615Z,30.187
2018-07-24T11:46:04.261Z,30.312
2018-07-24T11:47:03.926Z,30.437
2018-07-24T11:48:03.672Z,30.312
2018-07-24T11:49:04.299Z,30.25
2018-07-24T11:50:03.772Z,30.25
2018-07-24T11:51:03.506Z,30.062
2018-07-24T11:52:04.233Z,30.125
2018-07-24T11:53:03.854Z,29.937
2018-07-24T11:54:03.507Z,29.937
2018-07-24T11:55:03.317Z,30.062
2018-07-24T11:56:03.904Z,30.062
2018-07-24T11:57:03.343Z,30.125
2018-07-24T11:58:04.034Z,30.25
2018-07-24T11:59:05.157Z,30.312
2018-07-24T12:00:04.483Z,30.312
2018-07-24T12:01:04.269Z,30.312
2018-07-24T12:02:03.583Z,30.437
2018-07-24T12:03:04.194Z,30.437
2018-07-24T12:04:03.550Z,30.437
2018-07-24T12:05:04.199Z,30.5
2018-07-24T12:06:03.787Z,30.5
2018-07-24T12:07:03.371Z,30.375
2018-07-24T12:08:03.685Z,30.312
2018-07-24T12:09:05.029Z,30.25
2018-07-24T12:10:03.458Z,30.375
2018-07-24T12:11:04.013Z,30.312
2018-07-24T12:12:03.864Z,30.25
2018-07-24T12:13:03.600Z,30.312
2018-07-24T12:14:04.036Z,30.312
2018-07-24T12:15:03.455Z,30.375
2018-07-24T12:16:04.243Z,30.375
2018-07-24T12:17:03.829Z,30.375
2018-07-24T12:18:03.456Z,30.312
2018-07-24T12:19:04.445Z,30.25
2018-07-24T12:20:03.888Z,30.125
2018-07-24T12:21:03.541Z,30.125
2018-07-24T12:22:04.279Z,30.187
2018-07-24T12:23:03.624Z,30.125
2018-07-24T12:24:04.045Z,30.125
2018-07-24T12:25:04.039Z,30.187
2018-07-24T12:26:03.703Z,30.187
2018-07-24T12:27:03.938Z,30.25
2018-07-24T12:28:03.609Z,30.375
2018-07-24T12:29:04.458Z,30.437
2018-07-24T12:30:04.043Z,30.437
2018-07-24T12:31:03.982Z,30.437
2018-07-24T12:32:04.227Z,30.562
2018-07-24T12:33:03.780Z,30.687
2018-07-24T12:34:03.276Z,30.562
2018-07-24T12:35:04.212Z,30.5
2018-07-24T12:36:03.868Z,30.375
2018-07-24T12:37:03.544Z,30.437
2018-07-24T12:38:04.240Z,30.437
2018-07-24T12:39:04.426Z,30.562
2018-07-24T12:40:03.837Z,30.687
2018-07-24T12:41:03.768Z,30.687
2018-07-24T12:42:03.686Z,30.75
2018-07-24T12:43:04.113Z,30.687